Time;durP1;ratioP1;P1;durP2;ratioP2;P2;SDS_P1;SDS_P2;PMS_P1;PMS_P2;Temp;Humidity;BMP_temperature;BMP_pressure;BME280_temperature;BME280_humidity;BME280_pressure;Samples;Min_cycle;Max_cycle;Signal;HPM_P1;HPM_P2
2021/12/20 00:00:25;;;;;;;12.20;9.47;;;;;;;3.50;86.40;96235.38;4972502;28;20680;-83
2021/12/20 00:02:56;;;;;;;12.60;8.90;;;;;;;3.46;86.38;96243.25;4954336;28;20236;-83
2021/12/20 00:05:23;;;;;;;13.00;9.07;;;;;;;3.50;85.96;96235.38;4954721;28;20197;-82
2021/12/20 00:07:50;;;;;;;14.00;8.90;;;;;;;3.51;85.92;96232.72;4955628;28;20216;-82
2021/12/20 00:10:20;;;;;;;11.37;8.97;;;;;;;3.51;85.98;96222.53;4955343;28;20228;-83
2021/12/20 00:12:48;;;;;;;12.57;9.53;;;;;;;3.65;85.31;96234.22;4955668;28;20244;-83
2021/12/20 00:15:15;;;;;;;10.97;8.80;;;;;;;3.66;84.68;96234.09;4954907;28;20201;-83
2021/12/20 00:17:41;;;;;;;12.47;9.17;;;;;;;3.72;84.53;96225.97;4956034;29;20204;-83
2021/12/20 00:20:09;;;;;;;12.47;9.47;;;;;;;3.79;84.20;96227.13;4955942;28;20635;-83
2021/12/20 00:22:35;;;;;;;11.60;8.37;;;;;;;3.78;83.79;96222.16;4954865;28;20269;-83
2021/12/20 00:25:02;;;;;;;10.73;8.83;;;;;;;3.80;83.85;96221.13;4954689;29;20693;-83
2021/12/20 00:27:28;;;;;;;12.00;8.97;;;;;;;3.78;84.10;96220.41;4955252;29;20213;-83
2021/12/20 00:29:56;;;;;;;10.33;8.30;;;;;;;3.77;83.92;96218.81;4955141;28;20205;-83
2021/12/20 00:32:22;;;;;;;10.90;8.83;;;;;;;3.71;84.17;96219.28;4954600;28;20243;-82
2021/12/20 00:34:49;;;;;;;11.57;9.23;;;;;;;3.77;84.33;96229.00;4955141;29;20228;-83
2021/12/20 00:42:44;;;;;;;12.40;8.77;;;;;;;3.81;84.21;96214.28;4962087;28;20326;-83
2021/12/20 00:45:13;;;;;;;12.73;9.10;;;;;;;3.73;84.91;96209.78;4951691;29;20214;-83
2021/12/20 00:47:40;;;;;;;11.53;9.30;;;;;;;3.63;85.70;96211.44;4954011;29;20580;-83
2021/12/20 00:50:09;;;;;;;13.47;9.53;;;;;;;3.46;86.59;96210.16;4961836;28;20850;-83
2021/12/20 00:52:36;;;;;;;11.27;8.80;;;;;;;3.40;87.61;96204.75;4953706;28;20243;-83
2021/12/20 00:55:03;;;;;;;12.40;9.07;;;;;;;3.39;88.07;96200.56;4953224;29;20197;-83
2021/12/20 00:57:30;;;;;;;12.27;9.63;;;;;;;3.51;87.05;96207.25;4954781;28;20212;-83
2021/12/20 00:59:56;;;;;;;12.60;9.50;;;;;;;3.54;86.69;96214.66;4953306;28;20217;-83
2021/12/20 01:02:24;;;;;;;15.83;9.37;;;;;;;3.60;85.93;96219.28;4953604;28;20822;-83
2021/12/20 01:04:50;;;;;;;13.47;9.83;;;;;;;3.68;85.76;96223.78;4953146;28;20208;-83
2021/12/20 01:07:17;;;;;;;13.40;9.47;;;;;;;3.69;85.04;96215.22;4954571;29;20209;-84
2021/12/20 01:09:43;;;;;;;12.47;9.27;;;;;;;3.74;84.80;96211.41;4953747;28;20692;-83
2021/12/20 01:12:17;;;;;;;11.93;9.27;;;;;;;3.79;85.07;96211.03;4953727;28;20237;-83
2021/12/20 01:14:44;;;;;;;12.50;9.77;;;;;;;3.82;84.64;96205.72;4955443;28;20288;-83
2021/12/20 01:17:10;;;;;;;12.40;9.00;;;;;;;3.75;84.93;96217.28;4957467;28;20283;-83
2021/12/20 01:19:39;;;;;;;12.13;9.43;;;;;;;3.84;84.39;96215.78;4957887;28;20205;-82
2021/12/20 01:22:06;;;;;;;14.47;9.03;;;;;;;3.83;84.46;96211.63;4957691;28;20739;-83
2021/12/20 01:24:33;;;;;;;11.93;9.10;;;;;;;3.88;84.10;96214.59;4957715;29;20209;-83
2021/12/20 01:27:00;;;;;;;14.80;9.53;;;;;;;3.87;84.19;96211.25;4958409;29;20208;-83
2021/12/20 01:29:26;;;;;;;11.40;8.70;;;;;;;3.95;83.75;96213.19;4956914;29;20267;-82
2021/12/20 01:31:52;;;;;;;12.70;9.37;;;;;;;3.86;84.15;96208.81;4956462;28;20713;-82
2021/12/20 01:34:19;;;;;;;11.93;9.20;;;;;;;3.90;83.97;96212.75;4956405;28;20193;-83
2021/12/20 01:36:47;;;;;;;12.10;9.33;;;;;;;3.88;84.64;96214.59;4956933;29;20683;-83
2021/12/20 01:39:13;;;;;;;12.40;9.13;;;;;;;3.87;84.33;96213.78;4957019;28;20197;-83
2021/12/20 01:41:41;;;;;;;11.33;8.67;;;;;;;3.81;85.01;96204.09;4956517;28;20220;-82
2021/12/20 01:44:08;;;;;;;11.77;9.43;;;;;;;3.75;85.08;96200.28;4956493;28;20264;-82
2021/12/20 01:46:34;;;;;;;10.77;8.23;;;;;;;3.71;85.56;96211.63;4956973;28;20205;-83
2021/12/20 01:49:03;;;;;;;12.13;8.97;;;;;;;3.73;85.28;96206.41;4960343;28;20200;-83
2021/12/20 01:51:45;;;;;;;13.07;8.70;;;;;;;3.63;85.74;96205.53;4975039;28;20259;-83
2021/12/20 01:54:12;;;;;;;14.47;8.83;;;;;;;3.59;86.38;96215.13;4957514;28;20213;-83
2021/12/20 01:56:41;;;;;;;10.50;8.53;;;;;;;3.61;85.92;96209.91;4956688;28;20287;-83
2021/12/20 01:59:09;;;;;;;10.80;8.73;;;;;;;3.64;85.90;96207.16;4957553;28;20231;-83
2021/12/20 02:01:36;;;;;;;11.87;9.07;;;;;;;3.63;85.90;96202.97;4956365;28;20291;-83
2021/12/20 02:04:06;;;;;;;11.37;8.63;;;;;;;3.61;86.01;96199.75;4962516;28;20209;-82
2021/12/20 02:06:37;;;;;;;11.97;8.90;;;;;;;3.55;86.78;96201.00;4960318;28;20213;-82
2021/12/20 02:09:07;;;;;;;12.87;9.80;;;;;;;3.64;86.09;96194.41;4958234;28;20248;-83
2021/12/20 02:11:35;;;;;;;13.53;8.93;;;;;;;3.73;85.74;96203.88;4958016;28;20231;-83
2021/12/20 02:14:03;;;;;;;11.80;9.17;;;;;;;3.79;85.49;96201.66;4958439;28;20208;-83
2021/12/20 02:16:29;;;;;;;11.53;8.77;;;;;;;3.83;84.95;96202.25;4958113;28;20611;-83
2021/12/20 02:18:56;;;;;;;12.13;8.53;;;;;;;3.78;84.90;96197.50;4963629;28;20753;-83
2021/12/20 02:21:24;;;;;;;11.67;8.37;;;;;;;3.77;85.23;96198.44;4957449;28;20220;-82
2021/12/20 02:23:51;;;;;;;11.93;8.80;;;;;;;3.76;85.35;96206.19;4957899;28;20330;-83
2021/12/20 02:26:19;;;;;;;11.70;9.10;;;;;;;3.79;84.87;96204.22;4957408;28;20205;-83
2021/12/20 02:28:47;;;;;;;11.97;8.93;;;;;;;3.81;84.78;96204.91;4957586;28;20209;-83
2021/12/20 02:37:17;;;;;;;12.00;8.80;;;;;;;3.71;85.21;96188.72;4957253;28;20208;-83
2021/12/20 02:39:44;;;;;;;11.27;8.50;;;;;;;3.60;85.74;96193.03;4957763;28;20575;-83
2021/12/20 02:42:18;;;;;;;12.50;8.57;;;;;;;3.63;86.09;96193.59;4957088;28;20236;-83
2021/12/20 02:44:59;;;;;;;12.73;9.33;;;;;;;3.65;85.68;96186.66;4957254;28;20564;-83
2021/12/20 02:47:28;;;;;;;11.07;8.30;;;;;;;3.77;85.09;96188.25;4957421;29;20672;-83
2021/12/20 02:49:56;;;;;;;11.43;8.47;;;;;;;3.71;85.05;96185.34;4968517;28;20203;-83
2021/12/20 02:52:23;;;;;;;12.73;9.20;;;;;;;3.73;84.88;96184.31;4963618;28;20235;-83
2021/12/20 02:54:50;;;;;;;12.90;9.00;;;;;;;3.76;84.92;96181.53;4976304;28;20564;-83
2021/12/20 02:57:16;;;;;;;14.10;9.67;;;;;;;3.74;85.00;96187.66;4958612;28;20209;-83
2021/12/20 02:59:43;;;;;;;10.70;8.23;;;;;;;3.79;84.96;96183.03;4956452;28;20212;-83
2021/12/20 03:02:11;;;;;;;13.67;9.67;;;;;;;3.88;84.61;96181.47;4955676;28;20241;-83
2021/12/20 03:04:38;;;;;;;12.20;9.03;;;;;;;3.78;84.66;96179.66;4955653;28;20705;-83
2021/12/20 03:07:07;;;;;;;11.57;8.37;;;;;;;3.86;84.13;96178.25;4955750;28;20247;-83
2021/12/20 03:09:38;;;;;;;12.20;8.57;;;;;;;3.83;84.60;96186.97;4955200;28;20204;-83
2021/12/20 03:12:08;;;;;;;12.53;9.43;;;;;;;3.83;84.18;96189.50;4953410;28;20232;-83
2021/12/20 03:14:39;;;;;;;11.43;8.80;;;;;;;3.90;83.89;96195.72;4939269;29;20208;-83
2021/12/20 03:17:06;;;;;;;13.33;8.50;;;;;;;3.92;83.66;96186.22;4955362;28;20260;-83
2021/12/20 03:19:33;;;;;;;11.67;9.13;;;;;;;3.89;83.93;96183.91;4955009;28;20255;-83
2021/12/20 03:22:00;;;;;;;13.10;9.10;;;;;;;3.88;84.02;96184.03;4954530;28;20237;-83
2021/12/20 03:24:26;;;;;;;10.93;8.93;;;;;;;3.90;83.77;96187.28;4955301;29;20200;-83
2021/12/20 03:26:54;;;;;;;12.20;8.73;;;;;;;3.84;84.05;96195.41;4955658;28;20208;-83
2021/12/20 03:29:21;;;;;;;13.87;9.40;;;;;;;3.81;84.79;96189.63;4955388;28;20260;-83
2021/12/20 03:31:47;;;;;;;12.57;9.57;;;;;;;3.85;84.84;96189.38;4954283;28;20700;-83
2021/12/20 03:34:16;;;;;;;12.50;9.00;;;;;;;3.78;85.23;96181.41;4954840;29;20201;-83
2021/12/20 03:36:42;;;;;;;12.60;9.17;;;;;;;3.74;85.89;96188.47;4954452;28;20193;-83
2021/12/20 03:39:09;;;;;;;11.83;8.93;;;;;;;3.70;85.81;96194.72;4954081;28;20211;-83
2021/12/20 03:41:37;;;;;;;14.27;9.03;;;;;;;3.74;85.90;96190.22;4961167;28;20212;-83
2021/12/20 03:44:06;;;;;;;12.07;9.43;;;;;;;3.71;86.08;96200.63;4955539;28;20201;-83
2021/12/20 03:46:32;;;;;;;11.73;8.90;;;;;;;3.80;85.25;96192.28;4938824;29;20713;-83
2021/12/20 03:48:59;;;;;;;12.17;9.37;;;;;;;3.84;85.42;96192.88;4954843;28;20200;-83
2021/12/20 03:51:26;;;;;;;13.03;9.60;;;;;;;3.85;85.05;96192.72;4953738;28;20505;-82
2021/12/20 03:53:52;;;;;;;12.73;9.47;;;;;;;3.79;85.38;96188.94;4953957;28;20204;-83
2021/12/20 03:56:19;;;;;;;12.97;9.27;;;;;;;3.83;85.53;96192.06;4954546;28;20212;-83
2021/12/20 03:58:45;;;;;;;12.67;8.97;;;;;;;3.78;85.36;96181.41;4954868;28;20209;-83
2021/12/20 04:01:14;;;;;;;13.23;8.67;;;;;;;3.77;85.46;96183.16;4954210;28;20592;-83
2021/12/20 04:03:41;;;;;;;13.47;9.60;;;;;;;3.66;85.94;96178.06;4953546;28;20707;-83
2021/12/20 04:06:10;;;;;;;12.87;9.07;;;;;;;3.67;86.05;96182.22;4954030;28;20201;-83
2021/12/20 04:08:37;;;;;;;12.13;9.40;;;;;;;3.61;86.53;96171.72;4954322;29;20581;-83
2021/12/20 04:11:04;;;;;;;12.67;8.90;;;;;;;3.59;86.63;96174.41;4954477;28;20719;-83
2021/12/20 04:13:30;;;;;;;12.37;9.43;;;;;;;3.54;87.03;96180.75;4953853;28;20220;-83
2021/12/20 04:15:57;;;;;;;13.00;9.10;;;;;;;3.46;87.87;96186.47;4954849;28;20599;-83
2021/12/20 04:18:26;;;;;;;12.57;9.33;;;;;;;3.47;87.66;96188.06;4955493;28;20696;-83
2021/12/20 04:20:53;;;;;;;14.13;9.60;;;;;;;3.54;86.96;96189.22;4958529;28;20212;-83
2021/12/20 04:23:19;;;;;;;12.37;9.33;;;;;;;3.51;87.45;96184.34;4953574;28;20240;-83
2021/12/20 04:25:46;;;;;;;15.23;9.93;;;;;;;3.56;87.29;96189.09;4953456;28;20201;-83
2021/12/20 04:28:12;;;;;;;11.97;9.10;;;;;;;3.49;87.60;96188.75;4954724;28;20224;-83
2021/12/20 04:30:39;;;;;;;13.03;9.37;;;;;;;3.56;87.21;96184.81;4954634;28;20200;-83
2021/12/20 04:33:06;;;;;;;13.63;9.63;;;;;;;3.47;87.60;96181.22;4951347;28;20239;-83
2021/12/20 04:35:34;;;;;;;13.50;9.37;;;;;;;3.54;86.64;96201.94;4951409;28;20216;-83
2021/12/20 04:38:02;;;;;;;13.27;9.60;;;;;;;3.57;86.36;96195.81;4952520;28;20610;-83
2021/12/20 04:40:28;;;;;;;12.93;9.40;;;;;;;3.60;86.62;96188.75;4954231;28;20617;-83
2021/12/20 04:42:57;;;;;;;13.80;9.63;;;;;;;3.66;86.16;96197.63;4971027;28;20266;-83
2021/12/20 04:45:25;;;;;;;11.57;8.67;;;;;;;3.77;85.67;96210.34;4961004;28;20201;-83
2021/12/20 04:47:52;;;;;;;13.17;9.10;;;;;;;3.87;85.02;96210.44;4950734;28;20208;-83
2021/12/20 04:50:18;;;;;;;10.87;8.57;;;;;;;3.92;84.54;96201.50;4953265;28;20205;-83
2021/12/20 04:52:46;;;;;;;14.10;9.20;;;;;;;3.92;84.35;96210.88;4955256;28;20244;-83
2021/12/20 04:55:13;;;;;;;13.73;8.90;;;;;;;3.94;83.97;96204.75;4955041;28;20677;-83
2021/12/20 04:57:41;;;;;;;12.13;8.97;;;;;;;3.97;83.74;96206.25;4954967;28;20260;-83
2021/12/20 05:00:12;;;;;;;11.60;8.97;;;;;;;4.00;83.59;96206.00;4955206;29;20200;-83
2021/12/20 05:02:38;;;;;;;12.63;9.43;;;;;;;4.01;83.64;96216.09;4955635;28;20236;-83
2021/12/20 05:05:06;;;;;;;10.13;8.40;;;;;;;3.98;83.42;96211.22;4955766;28;20205;-82
2021/12/20 05:07:33;;;;;;;11.60;8.90;;;;;;;3.97;83.32;96212.16;4955801;29;20673;-82
2021/12/20 05:10:02;;;;;;;13.53;9.70;;;;;;;3.99;82.91;96214.59;4954997;28;20582;-82
2021/12/20 05:12:29;;;;;;;12.30;8.87;;;;;;;4.07;82.99;96210.47;4954392;28;20654;-83
2021/12/20 05:14:55;;;;;;;11.73;8.60;;;;;;;4.04;83.40;96218.38;4954498;28;20209;-82
2021/12/20 05:17:22;;;;;;;11.27;8.80;;;;;;;4.06;82.85;96218.25;4954885;28;20197;-82
2021/12/20 05:19:48;;;;;;;12.53;9.10;;;;;;;4.09;82.60;96228.19;4966030;28;20204;-82
2021/12/20 05:22:15;;;;;;;12.67;9.43;;;;;;;4.13;82.10;96232.13;4954581;28;20244;-82
2021/12/20 05:24:41;;;;;;;13.07;9.37;;;;;;;4.12;82.22;96227.97;4954889;29;20204;-82
2021/12/20 05:27:09;;;;;;;12.13;9.63;;;;;;;4.11;81.93;96231.44;4954081;29;20661;-83
2021/12/20 05:29:36;;;;;;;11.90;8.83;;;;;;;4.10;81.98;96232.38;4954568;28;20205;-83
2021/12/20 05:32:05;;;;;;;12.57;9.23;;;;;;;4.05;81.69;96235.28;4954078;28;20236;-83
2021/12/20 05:34:31;;;;;;;11.67;8.53;;;;;;;4.03;81.87;96231.25;4954371;28;20193;-83
2021/12/20 05:36:58;;;;;;;11.47;9.20;;;;;;;4.06;81.67;96238.63;4954612;28;20212;-83
2021/12/20 05:39:24;;;;;;;11.73;8.60;;;;;;;4.07;82.00;96237.69;4954284;28;20212;-83
2021/12/20 05:41:51;;;;;;;14.27;9.03;;;;;;;4.11;82.33;96232.25;4953601;28;20240;-83
2021/12/20 05:44:19;;;;;;;11.13;8.90;;;;;;;4.15;81.96;96241.28;4948908;28;20230;-82
2021/12/20 05:46:45;;;;;;;12.63;9.53;;;;;;;4.02;81.66;96234.72;4956522;28;20204;-82
2021/12/20 05:49:12;;;;;;;12.33;9.17;;;;;;;4.03;81.69;96236.34;4960851;28;20205;-83
2021/12/20 05:51:39;;;;;;;13.23;9.63;;;;;;;4.07;81.62;96235.97;4952979;28;20771;-83
2021/12/20 05:54:05;;;;;;;12.20;8.70;;;;;;;4.12;81.50;96238.16;4954475;28;20228;-83
2021/12/20 05:56:32;;;;;;;13.60;9.80;;;;;;;4.16;81.55;96244.63;4955559;28;20209;-83
2021/12/20 05:58:58;;;;;;;11.50;9.70;;;;;;;4.22;80.97;96239.06;4954646;28;20208;-83
2021/12/20 06:01:26;;;;;;;12.40;9.77;;;;;;;4.23;81.12;96238.13;4968690;28;20235;-82
2021/12/20 06:03:52;;;;;;;12.17;9.13;;;;;;;4.24;80.97;96234.63;4973353;28;20579;-83
2021/12/20 06:06:19;;;;;;;12.67;8.93;;;;;;;4.27;80.83;96241.22;4974754;28;20203;-83
2021/12/20 06:08:45;;;;;;;15.80;9.70;;;;;;;4.27;80.71;96241.22;4973790;28;20208;-83
2021/12/20 06:11:13;;;;;;;16.93;9.77;;;;;;;4.26;80.68;96237.88;4969387;28;20221;-82
2021/12/20 06:13:40;;;;;;;13.67;10.07;;;;;;;4.27;80.64;96246.31;4953637;28;20997;-83
2021/12/20 06:16:06;;;;;;;11.63;8.83;;;;;;;4.28;80.42;96247.94;4953945;29;20212;-82
2021/12/20 06:18:34;;;;;;;13.93;9.93;;;;;;;4.25;80.39;96250.72;4970464;28;20212;-83
2021/12/20 06:21:00;;;;;;;13.73;10.13;;;;;;;4.21;80.55;96257.03;4964453;28;20767;-83
2021/12/20 06:23:27;;;;;;;11.80;9.40;;;;;;;4.21;80.46;96247.63;4953567;28;20229;-83
2021/12/20 06:25:53;;;;;;;13.80;9.90;;;;;;;4.10;80.73;96247.66;4954032;28;20209;-83
2021/12/20 06:28:20;;;;;;;11.60;8.97;;;;;;;4.09;81.31;96248.59;4954525;29;20250;-83
2021/12/20 06:30:47;;;;;;;14.10;9.67;;;;;;;4.02;81.85;96257.66;4953845;28;20208;-83
2021/12/20 06:33:14;;;;;;;12.57;9.30;;;;;;;4.04;82.05;96256.59;4954223;28;20255;-83
2021/12/20 06:35:42;;;;;;;13.40;9.67;;;;;;;4.08;81.77;96263.06;4954166;28;20584;-83
2021/12/20 06:38:11;;;;;;;13.50;10.73;;;;;;;4.09;81.86;96253.69;4955057;28;20689;-83
2021/12/20 06:40:37;;;;;;;13.03;8.83;;;;;;;4.08;81.69;96255.41;4953848;28;20260;-83
2021/12/20 06:43:04;;;;;;;12.17;9.73;;;;;;;4.16;81.52;96255.63;4953666;28;20244;-83
2021/12/20 06:45:33;;;;;;;12.57;9.80;;;;;;;4.15;81.39;96258.31;4953173;28;20205;-83
2021/12/20 06:47:59;;;;;;;13.33;9.97;;;;;;;4.13;81.22;96267.81;4954078;28;20212;-83
2021/12/20 06:50:26;;;;;;;13.90;10.30;;;;;;;4.14;81.41;96264.34;4958226;28;20205;-83
2021/12/20 06:52:53;;;;;;;13.80;9.63;;;;;;;4.15;81.62;96263.41;4958452;28;20713;-83
2021/12/20 06:55:20;;;;;;;13.97;10.30;;;;;;;4.14;81.25;96277.06;4958488;29;20205;-83
2021/12/20 06:57:46;;;;;;;12.93;9.83;;;;;;;4.15;81.48;96281.25;4958218;28;20201;-83
2021/12/20 07:00:14;;;;;;;13.50;9.73;;;;;;;4.10;81.21;96276.50;4958274;28;20216;-83
2021/12/20 07:02:40;;;;;;;13.57;9.40;;;;;;;4.13;81.85;96273.72;4957914;28;20268;-84
2021/12/20 07:05:08;;;;;;;15.10;9.90;;;;;;;4.07;81.75;96274.19;4955914;28;20259;-84
2021/12/20 07:07:35;;;;;;;14.57;10.20;;;;;;;4.05;81.93;96272.69;4955153;28;20219;-83
2021/12/20 07:10:03;;;;;;;13.10;9.37;;;;;;;4.06;81.74;96271.75;4958240;28;20241;-83
2021/12/20 07:12:31;;;;;;;13.40;10.00;;;;;;;4.02;81.97;96275.50;4956327;28;20967;-83
2021/12/20 07:14:58;;;;;;;14.90;10.40;;;;;;;4.03;82.48;96275.38;4957982;28;20209;-83
2021/12/20 07:17:24;;;;;;;13.77;10.27;;;;;;;4.07;82.09;96273.38;4957451;28;20204;-83
2021/12/20 07:19:50;;;;;;;13.53;10.23;;;;;;;4.01;82.54;96271.31;4956967;29;20209;-83
2021/12/20 07:22:17;;;;;;;12.93;10.20;;;;;;;4.01;82.76;96273.88;4955424;28;20232;-83
2021/12/20 07:24:43;;;;;;;14.40;9.47;;;;;;;4.08;81.99;96272.44;4957655;28;20208;-83
2021/12/20 07:27:11;;;;;;;13.43;9.60;;;;;;;4.16;81.96;96273.47;4958175;28;20205;-83
2021/12/20 07:29:38;;;;;;;12.93;10.17;;;;;;;4.16;81.91;96278.56;4957489;28;20237;-83
2021/12/20 07:32:05;;;;;;;13.40;10.37;;;;;;;4.18;81.93;96281.00;4957278;28;20233;-83
2021/12/20 07:34:32;;;;;;;14.80;10.37;;;;;;;4.15;81.86;96282.06;4970090;28;20210;-84
2021/12/20 07:36:58;;;;;;;12.87;10.13;;;;;;;4.16;81.59;96281.13;4976669;28;20247;-83
2021/12/20 07:39:25;;;;;;;13.43;9.73;;;;;;;4.20;81.78;96280.88;4976871;28;20210;-83
2021/12/20 07:41:52;;;;;;;13.20;10.07;;;;;;;4.24;81.54;96284.78;4975330;28;20239;-83
2021/12/20 07:44:20;;;;;;;13.00;9.93;;;;;;;4.21;81.48;96287.59;4975153;28;20228;-83
2021/12/20 07:46:47;;;;;;;14.43;10.07;;;;;;;4.19;81.42;96284.38;4976368;28;20750;-83
2021/12/20 07:49:13;;;;;;;13.37;9.57;;;;;;;4.22;81.79;96281.59;4970253;28;20228;-83
2021/12/20 07:51:40;;;;;;;13.30;9.80;;;;;;;4.26;81.42;96291.41;4956543;28;20229;-83
2021/12/20 07:54:06;;;;;;;12.57;10.07;;;;;;;4.32;81.57;96290.13;4957689;28;20225;-83
2021/12/20 07:56:32;;;;;;;12.73;10.03;;;;;;;4.37;80.88;96290.56;4957611;28;20209;-83
2021/12/20 07:58:59;;;;;;;13.57;10.57;;;;;;;4.37;80.80;96291.38;4957919;28;20556;-83
2021/12/20 08:01:27;;;;;;;13.90;10.80;;;;;;;4.43;80.80;96292.63;4956015;28;20256;-83
2021/12/20 08:03:54;;;;;;;14.60;10.07;;;;;;;4.45;80.81;96298.41;4958039;28;20239;-83
2021/12/20 08:06:21;;;;;;;17.30;11.40;;;;;;;4.47;80.60;96294.81;4957605;28;20205;-83
2021/12/20 08:08:47;;;;;;;17.07;11.27;;;;;;;4.48;80.48;96291.31;4956904;28;20328;-83
2021/12/20 08:11:14;;;;;;;17.87;10.90;;;;;;;4.50;80.73;96293.75;4957356;28;20228;-83
2021/12/20 08:13:44;;;;;;;20.70;11.40;;;;;;;4.51;80.19;96286.00;4956220;28;20236;-83
2021/12/20 08:16:11;;;;;;;13.90;10.83;;;;;;;4.55;80.30;96286.56;4956220;28;20201;-83
2021/12/20 08:18:39;;;;;;;17.07;10.70;;;;;;;4.56;80.32;96289.91;4959755;28;20196;-83
2021/12/20 08:21:05;;;;;;;15.57;10.00;;;;;;;4.48;81.64;96291.31;4974434;28;20278;-83
2021/12/20 08:23:32;;;;;;;14.73;10.57;;;;;;;4.50;81.13;96293.75;4976977;28;20231;-84
2021/12/20 08:25:58;;;;;;;13.13;10.70;;;;;;;4.45;81.96;96301.75;4982900;28;20676;-83
2021/12/20 08:28:25;;;;;;;14.00;10.33;;;;;;;4.44;82.31;96296.78;4981967;28;20207;-84
2021/12/20 08:30:51;;;;;;;14.07;10.00;;;;;;;4.47;81.97;96302.47;4961123;28;20216;-84
2021/12/20 08:33:18;;;;;;;15.80;10.40;;;;;;;4.54;81.72;96294.34;4962924;28;20228;-83
2021/12/20 08:35:49;;;;;;;12.90;9.90;;;;;;;4.61;81.40;96292.94;4963107;29;20208;-83
2021/12/20 08:38:16;;;;;;;15.03;10.60;;;;;;;4.67;81.25;96292.41;4962433;28;20216;-83
2021/12/20 08:40:42;;;;;;;14.00;10.73;;;;;;;4.71;80.61;96304.00;4963393;28;20204;-83
2021/12/20 08:43:09;;;;;;;14.27;10.20;;;;;;;4.73;80.08;96295.28;4961958;28;20232;-83
2021/12/20 08:45:35;;;;;;;13.23;9.97;;;;;;;4.76;80.10;96302.72;4973480;28;20208;-83
2021/12/20 08:48:02;;;;;;;13.87;10.40;;;;;;;4.77;80.18;96300.97;4980158;28;20204;-83
2021/12/20 08:50:29;;;;;;;14.93;10.57;;;;;;;4.78;79.33;96308.50;4966077;28;20211;-83
2021/12/20 08:52:56;;;;;;;13.73;10.20;;;;;;;4.75;79.75;96311.28;4961330;28;20236;-83
2021/12/20 08:55:24;;;;;;;13.83;9.73;;;;;;;4.72;80.17;96300.50;4961863;28;20232;-84
2021/12/20 08:57:51;;;;;;;13.77;10.37;;;;;;;4.67;79.94;96302.63;4962152;28;20239;-83
2021/12/20 09:00:20;;;;;;;14.97;10.20;;;;;;;4.71;79.85;96315.00;4962315;28;20647;-83
2021/12/20 09:02:47;;;;;;;14.97;11.20;;;;;;;4.72;79.61;96315.81;4961930;28;20228;-83
2021/12/20 09:05:13;;;;;;;16.47;11.13;;;;;;;4.67;79.77;96312.81;4961658;28;20197;-83
2021/12/20 09:07:41;;;;;;;14.30;10.43;;;;;;;4.66;79.43;96313.75;4962350;28;20216;-83
2021/12/20 09:10:09;;;;;;;18.20;10.87;;;;;;;4.63;79.76;96309.69;4962305;28;20205;-83
2021/12/20 09:12:36;;;;;;;16.13;10.20;;;;;;;4.61;80.22;96318.44;4962144;28;20279;-83
2021/12/20 09:15:03;;;;;;;16.73;10.50;;;;;;;4.66;79.95;96316.28;4962852;29;20208;-83
2021/12/20 09:17:30;;;;;;;15.00;10.23;;;;;;;4.65;80.04;96319.78;4961109;28;20212;-83
2021/12/20 09:19:56;;;;;;;14.57;11.07;;;;;;;4.72;80.04;96321.72;4975386;28;20204;-83
2021/12/20 09:22:26;;;;;;;13.70;10.60;;;;;;;4.71;79.65;96321.84;4980246;28;20236;-83
2021/12/20 09:24:53;;;;;;;14.60;10.60;;;;;;;4.72;80.15;96313.28;4980928;28;20196;-83
2021/12/20 09:27:22;;;;;;;16.17;10.63;;;;;;;4.78;80.04;96316.16;4971774;28;20288;-83
2021/12/20 09:29:48;;;;;;;15.43;10.87;;;;;;;4.76;79.38;96322.31;4960995;28;20209;-83
2021/12/20 09:32:15;;;;;;;15.13;11.17;;;;;;;4.79;79.64;96324.63;4961126;28;20228;-83
2021/12/20 09:34:41;;;;;;;13.77;10.37;;;;;;;4.84;79.51;96320.75;4960899;28;20224;-83
2021/12/20 09:37:08;;;;;;;14.83;10.50;;;;;;;4.91;79.46;96321.06;4956407;28;20204;-83
2021/12/20 09:39:38;;;;;;;16.73;11.00;;;;;;;4.88;79.78;96313.66;4957824;28;20244;-83
2021/12/20 09:42:05;;;;;;;15.07;10.47;;;;;;;4.94;79.17;96320.00;4958172;28;20303;-83
2021/12/20 09:44:33;;;;;;;15.07;10.50;;;;;;;4.96;79.05;96324.06;4961329;28;20215;-83
2021/12/20 09:47:03;;;;;;;16.07;11.10;;;;;;;4.96;79.06;96318.97;4961838;28;20220;-83
2021/12/20 09:49:30;;;;;;;13.80;10.67;;;;;;;4.98;79.17;96318.84;4960155;28;20209;-83
2021/12/20 09:51:58;;;;;;;14.97;11.97;;;;;;;5.03;78.60;96321.81;4958045;28;20375;-83
2021/12/20 09:54:25;;;;;;;15.20;10.77;;;;;;;5.03;78.65;96320.06;4958820;28;20716;-83
2021/12/20 09:56:53;;;;;;;15.50;11.73;;;;;;;5.09;78.96;96318.78;4958811;28;20248;-83
2021/12/20 09:59:22;;;;;;;15.73;11.03;;;;;;;5.10;78.65;96315.28;4958412;28;20213;-83
2021/12/20 10:01:51;;;;;;;14.47;11.07;;;;;;;5.04;78.59;96313.22;4957599;28;20296;-83
2021/12/20 10:04:18;;;;;;;13.47;10.30;;;;;;;5.02;78.31;96310.78;4958412;28;20201;-83
2021/12/20 10:06:45;;;;;;;16.10;10.80;;;;;;;5.05;78.02;96313.09;4958603;28;20204;-83
2021/12/20 10:09:14;;;;;;;14.63;10.97;;;;;;;5.08;78.39;96306.94;4958213;28;20205;-83
2021/12/20 10:11:43;;;;;;;16.43;11.07;;;;;;;5.12;78.35;96310.88;4957212;28;20272;-83
2021/12/20 10:14:12;;;;;;;14.80;10.87;;;;;;;5.17;78.38;96311.31;4958167;28;20231;-83
2021/12/20 10:16:40;;;;;;;14.23;10.40;;;;;;;5.22;78.06;96304.88;4957874;28;20259;-83
2021/12/20 10:19:28;;;;;;;15.93;11.33;;;;;;;5.15;78.19;96311.44;4964351;28;20205;-83
2021/12/20 10:21:56;;;;;;;14.43;10.37;;;;;;;5.14;78.46;96311.56;4976976;28;20247;-83
2021/12/20 10:24:30;;;;;;;15.47;11.47;;;;;;;5.20;78.70;96313.59;4967629;28;20252;-83
2021/12/20 10:26:57;;;;;;;12.77;8.03;;;;;;;5.33;94.51;96310.84;4957524;28;20557;-83
2021/12/20 10:29:23;;;;;;;16.60;10.43;;;;;;;5.64;90.89;96307.38;4957026;28;20680;-83
2021/12/20 10:31:51;;;;;;;16.50;11.00;;;;;;;5.72;79.99;96305.00;4956292;28;20232;-83
2021/12/20 10:34:30;;;;;;;14.83;10.60;;;;;;;5.68;78.43;96302.81;4956929;28;20237;-83
2021/12/20 10:36:59;;;;;;;16.23;11.47;;;;;;;5.64;78.22;96296.34;4956700;28;20205;-83
2021/12/20 10:39:34;;;;;;;17.00;11.20;;;;;;;5.61;78.20;96294.84;4957864;29;20209;-83
2021/12/20 10:42:16;;;;;;;15.93;11.43;;;;;;;5.49;78.34;96304.34;4957799;28;20239;-83
2021/12/20 10:44:43;;;;;;;14.80;11.47;;;;;;;5.46;78.71;96301.25;4957264;28;20291;-84
2021/12/20 10:47:24;;;;;;;14.47;11.20;;;;;;;5.43;78.33;96299.75;4956561;28;20204;-83
2021/12/20 10:49:52;;;;;;;16.37;10.87;;;;;;;5.38;78.63;96296.78;4956806;28;20209;-83
2021/12/20 10:52:26;;;;;;;15.07;11.27;;;;;;;5.45;78.60;96299.63;4956328;28;20334;-83
2021/12/20 10:54:55;;;;;;;16.73;11.73;;;;;;;5.46;78.38;96301.25;4957959;28;20224;-83
2021/12/20 10:57:28;;;;;;;15.00;11.00;;;;;;;5.39;78.62;96306.03;4976318;28;20200;-84
2021/12/20 11:00:14;;;;;;;16.40;11.67;;;;;;;5.26;78.68;96302.06;4976046;28;20291;-83
2021/12/20 11:03:19;;;;;;;16.00;11.43;;;;;;;5.26;78.75;96295.22;4975314;28;20267;-83
2021/12/20 11:06:11;;;;;;;15.57;10.63;;;;;;;5.33;78.95;96295.53;4975996;28;20722;-83
2021/12/20 11:11:20;;;;;;;18.27;11.37;;;;;;;5.28;78.65;96285.69;4970649;28;20311;-83
2021/12/20 11:13:47;;;;;;;15.60;11.30;;;;;;;5.34;79.09;96292.84;4956607;28;20264;-83
2021/12/20 11:16:27;;;;;;;16.27;11.57;;;;;;;5.45;78.67;96286.84;4956468;28;20236;-84
2021/12/20 11:19:25;;;;;;;15.47;11.53;;;;;;;5.51;78.53;96292.28;4962353;28;20677;-83
2021/12/20 11:21:56;;;;;;;14.50;10.83;;;;;;;5.51;78.40;96289.72;4975655;28;20729;-84
2021/12/20 11:24:26;;;;;;;15.50;10.70;;;;;;;5.47;78.29;96288.34;4973416;28;20635;-84
2021/12/20 11:26:53;;;;;;;14.37;10.87;;;;;;;5.51;78.07;96292.28;4957796;28;20232;-83
2021/12/20 11:29:21;;;;;;;13.83;10.57;;;;;;;5.46;78.30;96294.38;4956928;28;20684;-85
2021/12/20 11:31:48;;;;;;;14.03;10.30;;;;;;;5.41;78.14;96293.13;4956702;28;20240;-83
2021/12/20 11:34:15;;;;;;;14.37;10.93;;;;;;;5.40;78.09;96286.41;4964694;28;20887;-83
2021/12/20 11:36:42;;;;;;;13.07;10.10;;;;;;;5.48;78.07;96289.16;4975088;28;20688;-83
2021/12/20 11:39:10;;;;;;;13.80;10.67;;;;;;;5.50;77.45;96295.75;4975469;28;20208;-83
2021/12/20 11:41:38;;;;;;;14.43;9.47;;;;;;;5.45;77.14;96289.41;4974561;28;20750;-84
2021/12/20 11:44:07;;;;;;;13.77;9.60;;;;;;;5.48;77.50;96292.53;4975452;28;20203;-83
2021/12/20 11:46:41;;;;;;;15.23;10.17;;;;;;;5.53;77.65;96292.94;4961864;28;20200;-84